createdAt,value
2019-04-14T00:00:35.979Z,15.94
2019-04-14T00:03:06.611Z,17.18
2019-04-14T00:05:35.919Z,16.72
2019-04-14T00:08:05.187Z,16.14
2019-04-14T00:10:33.637Z,20.35
2019-04-14T00:13:02.529Z,20.24
2019-04-14T00:15:38.865Z,19.92
2019-04-14T00:18:01.057Z,18.15
2019-04-14T00:20:29.405Z,18.51
2019-04-14T00:22:57.734Z,18.19
2019-04-14T00:25:26.231Z,18.86
2019-04-14T00:27:54.661Z,17.86
2019-04-14T00:30:23.670Z,17.81
2019-04-14T00:32:57.415Z,16.67
2019-04-14T00:35:30.045Z,17.47
2019-04-14T00:38:17.248Z,18.80
2019-04-14T00:40:53.910Z,19.18
2019-04-14T00:43:24.467Z,18.34
2019-04-14T00:45:56.816Z,19.04
2019-04-14T00:48:26.163Z,19.49
2019-04-14T00:50:54.470Z,18.88
2019-04-14T00:53:22.928Z,17.73
2019-04-14T00:55:51.380Z,18.30
2019-04-14T00:58:19.637Z,17.70
2019-04-14T01:00:47.968Z,18.46
2019-04-14T01:03:16.248Z,17.63
2019-04-14T01:05:45.787Z,17.46
2019-04-14T01:08:14.306Z,17.28
2019-04-14T01:10:43.293Z,17.50
2019-04-14T01:13:12.779Z,18.72
2019-04-14T01:15:53.665Z,18.30
2019-04-14T01:18:12.546Z,17.43
2019-04-14T01:20:40.990Z,17.68
2019-04-14T01:23:10.518Z,17.55
2019-04-14T01:25:39.038Z,18.16
2019-04-14T01:28:07.280Z,20.55
2019-04-14T01:30:35.540Z,19.93
2019-04-14T01:33:03.968Z,19.86
2019-04-14T01:35:33.446Z,19.39
2019-04-14T01:38:01.884Z,19.30
2019-04-14T01:40:31.333Z,19.01
2019-04-14T01:42:59.795Z,19.12
2019-04-14T01:45:28.154Z,18.52
2019-04-14T01:47:57.489Z,18.22
2019-04-14T01:50:36.615Z,19.40
2019-04-14T01:53:07.553Z,18.04
2019-04-14T01:55:46.515Z,18.99
2019-04-14T01:58:16.479Z,19.19
2019-04-14T02:01:02.229Z,19.10
2019-04-14T02:03:30.502Z,18.77
2019-04-14T02:05:58.763Z,19.68
2019-04-14T02:08:28.309Z,18.85
2019-04-14T02:10:56.661Z,18.90
2019-04-14T02:13:24.967Z,19.25
2019-04-14T02:15:53.232Z,18.73
2019-04-14T02:18:22.830Z,19.49
2019-04-14T02:20:51.304Z,19.67
2019-04-14T02:23:19.619Z,19.15
2019-04-14T02:25:49.248Z,19.80
2019-04-14T02:28:17.811Z,19.67
2019-04-14T02:30:56.787Z,19.24
2019-04-14T02:38:47.332Z,18.43
2019-04-14T02:41:24.626Z,18.99
2019-04-14T02:43:49.339Z,19.94
2019-04-14T02:46:16.996Z,18.78
2019-04-14T02:51:13.816Z,19.61
2019-04-14T02:56:16.445Z,19.82
2019-04-14T02:58:45.945Z,19.82
2019-04-14T03:01:14.713Z,18.94
2019-04-14T03:03:43.102Z,19.60
2019-04-14T03:06:12.615Z,19.32
2019-04-14T03:08:52.036Z,19.46
2019-04-14T03:11:11.760Z,18.38
2019-04-14T03:13:45.415Z,19.58
2019-04-14T03:16:19.762Z,18.23
2019-04-14T03:21:36.373Z,19.50
2019-04-14T03:24:12.739Z,18.74
2019-04-14T03:26:45.110Z,18.39
2019-04-14T03:29:21.710Z,19.33
2019-04-14T03:32:01.398Z,19.70
2019-04-14T03:39:15.309Z,19.13
2019-04-14T03:41:50.652Z,18.79
2019-04-14T03:44:25.282Z,19.58
2019-04-14T03:46:50.769Z,20.70
2019-04-14T03:51:50.262Z,18.51
2019-04-14T03:54:10.940Z,19.18
2019-04-14T03:56:48.933Z,19.97
2019-04-14T03:59:17.755Z,19.69
2019-04-14T04:01:47.757Z,18.04
2019-04-14T04:04:16.532Z,18.67
2019-04-14T04:06:44.887Z,19.04
2019-04-14T04:09:15.026Z,18.11
2019-04-14T04:11:43.515Z,18.09
2019-04-14T04:14:11.850Z,20.32
2019-04-14T04:16:44.201Z,19.79
2019-04-14T04:19:29.987Z,19.03
2019-04-14T04:21:59.901Z,19.22
2019-04-14T04:24:45.465Z,19.38
2019-04-14T04:27:15.796Z,19.37
2019-04-14T04:29:54.842Z,20.02
2019-04-14T04:32:25.425Z,19.13
2019-04-14T04:35:13.092Z,18.98
2019-04-14T04:37:52.129Z,18.57
2019-04-14T04:40:31.334Z,18.83
2019-04-14T04:42:59.611Z,19.11
2019-04-14T04:45:27.881Z,19.31
2019-04-14T04:47:56.275Z,19.36
2019-04-14T04:50:24.538Z,18.76
2019-04-14T04:52:53.921Z,18.51
2019-04-14T04:55:22.471Z,19.21
2019-04-14T04:57:50.749Z,18.38
2019-04-14T05:00:19.940Z,18.85
2019-04-14T05:02:48.535Z,18.49
2019-04-14T05:05:45.410Z,18.53
2019-04-14T05:08:13.693Z,18.21
2019-04-14T05:10:46.414Z,19.24
2019-04-14T05:13:16.124Z,19.04
2019-04-14T05:15:46.592Z,18.52
2019-04-14T05:18:16.191Z,18.99
2019-04-14T05:20:44.479Z,18.51
2019-04-14T05:23:12.769Z,18.49
2019-04-14T05:25:41.088Z,17.78
2019-04-14T05:28:09.385Z,18.71
2019-04-14T05:30:37.660Z,19.21
2019-04-14T05:33:05.917Z,19.35
2019-04-14T05:35:34.216Z,19.39
2019-04-14T05:38:02.505Z,18.70
2019-04-14T05:40:32.149Z,18.13
2019-04-14T05:43:00.757Z,18.07
2019-04-14T05:45:29.162Z,18.23
2019-04-14T05:47:57.472Z,18.35
2019-04-14T05:50:27.124Z,18.63
2019-04-14T05:52:55.805Z,19.47
2019-04-14T05:55:24.259Z,19.69
2019-04-14T05:57:52.673Z,19.49
2019-04-14T06:00:21.288Z,19.29
2019-04-14T06:02:50.618Z,19.41
2019-04-14T06:05:19.093Z,19.16
2019-04-14T06:07:47.379Z,19.47
2019-04-14T06:10:16.032Z,18.83
2019-04-14T06:12:44.316Z,19.09
2019-04-14T06:15:12.858Z,18.53
2019-04-14T06:17:41.234Z,18.43
2019-04-14T06:20:09.776Z,18.32
2019-04-14T06:22:38.070Z,18.64
2019-04-14T06:25:06.777Z,18.71
2019-04-14T06:27:36.072Z,19.11
2019-04-14T06:30:08.449Z,18.00
2019-04-14T06:32:46.614Z,18.73
2019-04-14T06:35:22.066Z,18.87
2019-04-14T06:37:54.632Z,19.29
2019-04-14T06:40:24.539Z,19.16
2019-04-14T06:42:52.868Z,18.46
2019-04-14T06:45:21.124Z,18.35
2019-04-14T06:47:49.391Z,18.90
2019-04-14T06:50:17.655Z,18.89
2019-04-14T06:52:45.961Z,17.95
2019-04-14T06:55:14.219Z,19.23
2019-04-14T06:57:42.495Z,19.67
2019-04-14T07:00:11.028Z,19.83
2019-04-14T07:02:39.306Z,18.96
2019-04-14T07:05:07.668Z,19.92
2019-04-14T07:07:35.936Z,19.61
2019-04-14T07:10:05.444Z,18.85
2019-04-14T07:12:33.704Z,19.84
2019-04-14T07:15:02.010Z,19.19
2019-04-14T07:17:30.386Z,19.38
2019-04-14T07:20:02.190Z,19.63
2019-04-14T07:22:28.650Z,19.53
2019-04-14T07:24:56.909Z,19.10
2019-04-14T07:27:25.266Z,19.69
2019-04-14T07:30:01.160Z,20.66
2019-04-14T07:32:31.093Z,20.34
2019-04-14T07:35:09.633Z,20.36
2019-04-14T07:37:45.321Z,19.45
2019-04-14T07:40:21.198Z,20.35
2019-04-14T07:43:03.085Z,20.15
2019-04-14T07:45:38.996Z,20.94
2019-04-14T07:48:25.003Z,20.54
2019-04-14T07:51:11.135Z,19.63
2019-04-14T07:53:41.042Z,18.73
2019-04-14T07:56:26.826Z,18.63
2019-04-14T07:58:59.713Z,19.54
2019-04-14T08:01:29.628Z,20.31
2019-04-14T08:04:02.503Z,19.73
2019-04-14T08:06:31.738Z,20.19
2019-04-14T08:09:00.021Z,20.52
2019-04-14T08:11:28.301Z,21.32
2019-04-14T08:13:56.581Z,20.88
2019-04-14T08:16:24.854Z,20.99
2019-04-14T08:18:53.114Z,21.37
2019-04-14T08:21:21.396Z,20.42
2019-04-14T08:23:49.666Z,20.20
2019-04-14T08:26:17.933Z,19.87
2019-04-14T08:28:46.289Z,19.51
2019-04-14T08:31:14.550Z,20.11
2019-04-14T08:33:42.920Z,20.27
2019-04-14T08:36:11.188Z,19.91
2019-04-14T08:38:39.468Z,20.63
2019-04-14T08:41:07.756Z,21.43
2019-04-14T08:43:40.602Z,19.56
2019-04-14T08:46:19.273Z,19.57
2019-04-14T08:48:49.245Z,19.89
2019-04-14T08:51:19.179Z,20.09
2019-04-14T08:53:51.495Z,19.22
2019-04-14T08:56:37.749Z,19.39
2019-04-14T08:59:23.860Z,20.43
2019-04-14T09:02:09.548Z,21.48
2019-04-14T09:04:45.364Z,20.29
2019-04-14T09:07:18.267Z,20.93
2019-04-14T09:09:57.024Z,20.35
2019-04-14T09:12:26.945Z,20.17
2019-04-14T09:14:57.203Z,20.89
2019-04-14T09:17:26.659Z,20.93
2019-04-14T09:19:54.945Z,21.51
2019-04-14T09:22:23.224Z,20.37
2019-04-14T09:24:51.499Z,20.54
2019-04-14T09:27:19.778Z,20.62
2019-04-14T09:29:48.061Z,21.32
2019-04-14T09:32:16.505Z,21.42
2019-04-14T09:34:44.773Z,20.96
2019-04-14T09:37:13.063Z,21.52
2019-04-14T09:39:41.329Z,21.48
2019-04-14T09:42:09.616Z,21.91
2019-04-14T09:44:37.903Z,21.76
2019-04-14T09:47:06.158Z,21.59
2019-04-14T09:49:34.441Z,22.23
2019-04-14T09:52:02.780Z,22.43
2019-04-14T09:54:31.056Z,22.97
2019-04-14T09:56:59.332Z,22.66
2019-04-14T09:59:27.626Z,22.64
2019-04-14T10:01:56.319Z,22.22
2019-04-14T10:04:24.589Z,21.70
2019-04-14T10:06:52.855Z,22.33
2019-04-14T10:09:21.122Z,22.66
2019-04-14T10:11:52.532Z,22.50
2019-04-14T10:14:19.405Z,22.61
2019-04-14T10:16:47.729Z,22.46
2019-04-14T10:19:16.071Z,22.72
2019-04-14T10:21:44.400Z,22.15
2019-04-14T10:24:12.630Z,22.93
2019-04-14T10:26:41.238Z,23.12
2019-04-14T10:29:09.511Z,22.32
2019-04-14T10:31:37.787Z,22.44
2019-04-14T10:34:06.070Z,22.12
2019-04-14T10:36:34.347Z,23.19
2019-04-14T10:39:03.731Z,23.98
2019-04-14T10:41:31.977Z,23.57
2019-04-14T10:44:00.316Z,22.88
2019-04-14T10:46:28.586Z,23.72
2019-04-14T10:48:56.884Z,23.05
2019-04-14T10:51:30.384Z,23.73
2019-04-14T10:53:55.157Z,23.96
2019-04-14T10:56:23.459Z,24.95
2019-04-14T10:58:51.737Z,24.45
2019-04-14T11:01:20.024Z,24.76
2019-04-14T11:03:48.318Z,24.81
2019-04-14T11:06:26.721Z,25.51
2019-04-14T11:08:54.987Z,24.97
2019-04-14T11:11:23.245Z,21.38
2019-04-14T11:13:51.510Z,21.77
2019-04-14T11:16:19.772Z,23.72
2019-04-14T11:18:48.055Z,25.50
2019-04-14T11:21:16.610Z,25.67
2019-04-14T11:23:44.912Z,23.77
2019-04-14T11:26:13.186Z,24.24
2019-04-14T11:28:41.538Z,26.73
2019-04-14T11:31:10.182Z,26.21
2019-04-14T11:33:56.234Z,25.58
2019-04-14T11:36:42.211Z,27.31
2019-04-14T11:39:12.362Z,26.79
2019-04-14T11:41:40.704Z,26.56
2019-04-14T11:44:09.169Z,25.85
2019-04-14T11:46:37.507Z,26.08
2019-04-14T11:49:05.883Z,27.82
2019-04-14T11:51:34.220Z,28.28
2019-04-14T11:54:02.479Z,27.68
2019-04-14T11:56:30.766Z,27.98
2019-04-14T11:58:59.012Z,29.62
2019-04-14T12:01:45.429Z,27.77
2019-04-14T12:04:21.482Z,27.91
2019-04-14T12:07:07.786Z,26.89
2019-04-14T12:09:37.715Z,27.51
2019-04-14T12:12:07.619Z,26.93
2019-04-14T12:14:35.884Z,28.62
2019-04-14T12:17:04.182Z,31.68
2019-04-14T12:19:32.450Z,31.36
2019-04-14T12:22:08.312Z,31.84
2019-04-14T12:24:30.751Z,30.30
2019-04-14T12:26:59.020Z,30.70
2019-04-14T12:29:28.259Z,31.95
2019-04-14T12:31:57.450Z,33.50
2019-04-14T12:34:25.829Z,32.13
2019-04-14T12:36:54.103Z,32.09
2019-04-14T12:39:23.804Z,33.73
2019-04-14T12:41:59.988Z,31.09
2019-04-14T12:44:32.686Z,31.53
2019-04-14T12:47:02.588Z,32.15
2019-04-14T12:49:38.659Z,32.70
2019-04-14T12:52:21.640Z,33.47
2019-04-14T12:54:47.625Z,34.24
2019-04-14T12:57:17.523Z,33.90
2019-04-14T12:59:45.862Z,33.23
2019-04-14T13:02:15.768Z,34.98
2019-04-14T13:04:44.047Z,33.04
2019-04-14T13:07:12.386Z,31.19
2019-04-14T13:09:40.683Z,33.12
2019-04-14T13:12:10.468Z,29.01
2019-04-14T13:14:38.861Z,28.46
2019-04-14T13:17:07.139Z,30.77
2019-04-14T13:19:35.416Z,34.51
2019-04-14T13:22:03.692Z,35.85
2019-04-14T13:24:31.983Z,34.89
2019-04-14T13:27:00.253Z,32.62
2019-04-14T13:29:28.535Z,35.01
2019-04-14T13:31:56.807Z,32.62
2019-04-14T13:34:25.088Z,32.82
2019-04-14T13:36:53.379Z,36.48
2019-04-14T13:39:21.656Z,37.64
2019-04-14T13:41:49.925Z,35.45
2019-04-14T13:44:18.222Z,35.31
2019-04-14T13:46:46.477Z,37.50
2019-04-14T13:49:14.763Z,37.00
2019-04-14T13:51:43.026Z,33.44
2019-04-14T13:54:11.319Z,35.95
2019-04-14T13:56:39.594Z,33.30
2019-04-14T13:59:07.859Z,34.28
2019-04-14T14:01:36.148Z,36.91
2019-04-14T14:04:04.562Z,35.96
2019-04-14T14:06:32.823Z,31.05
2019-04-14T14:09:01.106Z,32.97
2019-04-14T14:11:32.440Z,35.31
2019-04-14T14:14:02.538Z,32.53
2019-04-14T14:16:41.097Z,33.43
2019-04-14T14:19:13.446Z,34.19
2019-04-14T14:21:52.345Z,33.09
2019-04-14T14:27:09.976Z,33.85
2019-04-14T14:29:38.261Z,33.03
2019-04-14T14:32:08.249Z,32.23
2019-04-14T14:34:36.528Z,33.10
2019-04-14T14:37:04.793Z,32.14
2019-04-14T14:39:33.463Z,32.16
2019-04-14T14:42:01.754Z,31.40
2019-04-14T14:44:31.687Z,31.73
2019-04-14T14:47:01.596Z,32.23
2019-04-14T14:49:49.889Z,29.89
2019-04-14T14:52:21.872Z,30.82
2019-04-14T14:54:50.138Z,31.18
2019-04-14T14:57:18.417Z,29.88
2019-04-14T14:59:46.702Z,31.40
2019-04-14T15:02:14.983Z,28.70
2019-04-14T15:04:43.253Z,30.34
2019-04-14T15:07:11.532Z,30.65
2019-04-14T15:09:39.885Z,30.36
2019-04-14T15:12:08.163Z,29.86
2019-04-14T15:14:36.442Z,29.17
2019-04-14T15:17:08.300Z,30.88
2019-04-14T15:19:35.616Z,29.86
2019-04-14T15:22:04.155Z,31.03
2019-04-14T15:24:37.299Z,31.14
2019-04-14T15:27:05.654Z,32.66
2019-04-14T15:29:33.918Z,32.23
2019-04-14T15:32:02.195Z,30.69
2019-04-14T15:34:30.469Z,29.66
2019-04-14T15:36:58.938Z,28.84
2019-04-14T15:39:27.277Z,30.82
2019-04-14T15:41:55.524Z,33.25
2019-04-14T15:44:23.839Z,32.86
2019-04-14T15:46:52.098Z,31.27
2019-04-14T15:49:20.400Z,31.34
2019-04-14T15:51:48.665Z,31.46
2019-04-14T15:54:16.934Z,32.33
2019-04-14T15:57:04.813Z,31.49
2019-04-14T15:59:42.291Z,33.72
2019-04-14T16:02:12.210Z,32.81
2019-04-14T16:04:50.854Z,31.91
2019-04-14T16:07:26.285Z,33.94
2019-04-14T16:10:01.726Z,34.49
2019-04-14T16:12:34.169Z,34.46
2019-04-14T16:15:06.738Z,34.23
2019-04-14T16:17:39.587Z,33.83
2019-04-14T16:20:09.726Z,33.65
2019-04-14T16:22:39.059Z,34.63
2019-04-14T16:25:07.626Z,32.53
2019-04-14T16:27:37.612Z,28.61
2019-04-14T16:30:07.804Z,29.07
2019-04-14T16:32:52.918Z,30.78
2019-04-14T16:35:22.863Z,29.28
2019-04-14T16:37:51.137Z,26.67
2019-04-14T16:40:19.518Z,26.06
2019-04-14T16:42:47.771Z,26.50
2019-04-14T16:45:17.602Z,27.60
2019-04-14T16:47:45.862Z,28.19
2019-04-14T16:50:14.210Z,27.67
2019-04-14T16:52:47.144Z,26.24
2019-04-14T16:55:17.103Z,25.85
2019-04-14T16:57:49.965Z,25.73
2019-04-14T17:02:56.825Z,25.51
2019-04-14T17:05:25.087Z,24.27
2019-04-14T17:07:53.778Z,24.78
2019-04-14T17:10:22.319Z,22.49
2019-04-14T17:12:55.536Z,24.53
2019-04-14T17:15:40.468Z,23.73
2019-04-14T17:18:28.547Z,24.99
2019-04-14T17:21:14.585Z,23.63
2019-04-14T17:23:47.342Z,23.57
2019-04-14T17:26:35.310Z,23.57
2019-04-14T17:29:10.960Z,23.53
2019-04-14T17:31:58.739Z,22.86
2019-04-14T17:34:31.470Z,21.83
2019-04-14T17:37:10.203Z,22.32
2019-04-14T17:39:40.067Z,22.99
2019-04-14T17:42:28.308Z,22.74
2019-04-14T17:45:04.191Z,22.29
2019-04-14T17:47:40.113Z,22.74
2019-04-14T17:50:10.173Z,22.85
2019-04-14T17:52:42.977Z,21.23
2019-04-14T17:55:12.889Z,21.69
2019-04-14T17:57:58.968Z,21.90
2019-04-14T18:00:31.833Z,21.41
2019-04-14T18:03:04.161Z,22.29
2019-04-14T18:05:49.946Z,22.26
2019-04-14T18:08:28.411Z,22.17
2019-04-14T18:11:06.978Z,22.89
2019-04-14T18:13:36.998Z,21.61
2019-04-14T18:16:23.456Z,22.09
2019-04-14T18:19:02.388Z,23.04
2019-04-14T18:21:30.649Z,22.75
2019-04-14T18:23:59.060Z,23.16
2019-04-14T18:26:27.314Z,23.18
2019-04-14T18:28:59.914Z,22.33
2019-04-14T18:31:32.892Z,23.27
2019-04-14T18:34:12.492Z,23.02
2019-04-14T18:37:00.503Z,22.97
2019-04-14T18:39:42.717Z,22.93
2019-04-14T18:45:12.585Z,22.12
2019-04-14T18:47:51.472Z,21.66
2019-04-14T18:50:37.819Z,21.68
2019-04-14T18:53:07.779Z,20.83
2019-04-14T18:55:47.001Z,21.46
2019-04-14T18:58:33.276Z,21.54
2019-04-14T19:01:18.859Z,21.99
2019-04-14T19:03:47.917Z,21.90
2019-04-14T19:06:16.168Z,21.89
2019-04-14T19:08:44.835Z,22.35
2019-04-14T19:11:15.170Z,21.80
2019-04-14T19:13:45.262Z,21.65
2019-04-14T19:16:15.292Z,21.50
2019-04-14T19:18:45.210Z,21.50
2019-04-14T19:21:15.169Z,21.58
2019-04-14T19:23:46.303Z,21.32
2019-04-14T19:26:13.562Z,21.72
2019-04-14T19:28:41.839Z,21.85
2019-04-14T19:31:10.238Z,22.18
2019-04-14T19:33:38.501Z,21.81
2019-04-14T19:36:06.788Z,22.68
2019-04-14T19:38:35.048Z,22.36
2019-04-14T19:41:03.328Z,22.06
2019-04-14T19:43:31.607Z,20.88
2019-04-14T19:45:59.883Z,20.72
2019-04-14T19:48:28.212Z,19.85
2019-04-14T19:50:56.656Z,20.90
2019-04-14T19:53:24.952Z,21.21
2019-04-14T19:55:53.254Z,21.12
2019-04-14T19:58:21.572Z,20.77
2019-04-14T20:00:49.887Z,21.24
2019-04-14T20:03:18.148Z,20.36
2019-04-14T20:05:46.409Z,20.26
2019-04-14T20:08:14.703Z,20.41
2019-04-14T20:10:42.988Z,20.71
2019-04-14T20:13:11.230Z,20.92
2019-04-14T20:15:57.318Z,20.89
2019-04-14T20:18:43.403Z,20.72
2019-04-14T20:21:29.742Z,20.89
2019-04-14T20:24:08.557Z,20.50
2019-04-14T20:26:38.475Z,20.50
2019-04-14T20:29:10.854Z,20.61
2019-04-14T20:31:40.766Z,20.52
2019-04-14T20:34:09.049Z,20.31
2019-04-14T20:36:37.338Z,19.46
2019-04-14T20:39:09.284Z,20.14
2019-04-14T20:41:37.631Z,20.24
2019-04-14T20:44:05.908Z,20.42
2019-04-14T20:46:34.168Z,20.46
2019-04-14T20:49:02.463Z,19.80
2019-04-14T20:51:30.734Z,20.92
2019-04-14T20:53:59.064Z,21.15
2019-04-14T20:56:27.533Z,20.91
2019-04-14T20:58:55.790Z,20.92
2019-04-14T21:01:25.736Z,21.05
2019-04-14T21:04:12.028Z,20.43
2019-04-14T21:06:44.790Z,21.23
2019-04-14T21:09:14.707Z,20.08
2019-04-14T21:11:53.811Z,20.71
2019-04-14T21:14:40.084Z,20.53
2019-04-14T21:17:10.087Z,20.56
2019-04-14T21:19:45.956Z,20.91
2019-04-14T21:22:21.821Z,20.57
2019-04-14T21:24:51.759Z,20.99
2019-04-14T21:27:21.646Z,21.04
2019-04-14T21:29:51.664Z,20.48
2019-04-14T21:32:21.602Z,20.78
2019-04-14T21:35:03.575Z,20.85
2019-04-14T21:37:42.410Z,20.35
2019-04-14T21:40:17.909Z,20.70
2019-04-14T21:42:46.306Z,21.33
2019-04-14T21:45:14.660Z,20.77
2019-04-14T21:47:42.928Z,21.32
2019-04-14T21:50:11.568Z,21.00
2019-04-14T21:52:49.648Z,20.70
2019-04-14T21:55:17.174Z,19.96
2019-04-14T21:57:47.089Z,20.77
2019-04-14T22:00:35.069Z,21.10
2019-04-14T22:03:19.831Z,21.01
2019-04-14T22:05:52.695Z,20.19
2019-04-14T22:08:28.668Z,20.31
2019-04-14T22:10:58.575Z,20.05
2019-04-14T22:13:26.890Z,20.55
2019-04-14T22:15:55.157Z,20.99
2019-04-14T22:18:23.410Z,20.28
2019-04-14T22:20:51.738Z,20.11
2019-04-14T22:23:19.938Z,20.43
2019-04-14T22:25:48.224Z,20.13
2019-04-14T22:28:16.492Z,20.40
2019-04-14T22:30:44.750Z,20.56
2019-04-14T22:33:13.021Z,20.22
2019-04-14T22:35:41.287Z,19.53
2019-04-14T22:38:09.572Z,19.42
2019-04-14T22:40:37.867Z,20.70
2019-04-14T22:43:06.086Z,19.78
2019-04-14T22:45:34.994Z,21.08
2019-04-14T22:48:03.245Z,21.49
2019-04-14T22:50:31.553Z,20.37
2019-04-14T22:52:59.866Z,19.89
2019-04-14T22:55:28.129Z,19.26
2019-04-14T22:57:56.447Z,19.29
2019-04-14T23:00:26.780Z,18.69
2019-04-14T23:03:02.123Z,19.27
2019-04-14T23:05:49.802Z,19.50
2019-04-14T23:08:19.706Z,19.83
2019-04-14T23:11:05.666Z,19.07
2019-04-14T23:13:47.518Z,20.00
2019-04-14T23:16:26.093Z,19.61
2019-04-14T23:19:01.879Z,19.52
2019-04-14T23:21:31.777Z,19.65
2019-04-14T23:24:07.408Z,19.60
2019-04-14T23:26:35.664Z,19.76
2019-04-14T23:29:03.932Z,19.92
2019-04-14T23:31:32.183Z,19.41
2019-04-14T23:34:00.454Z,19.54
2019-04-14T23:36:28.728Z,19.67
2019-04-14T23:38:56.992Z,19.04
2019-04-14T23:41:25.330Z,18.99
2019-04-14T23:43:54.020Z,19.35
2019-04-14T23:46:22.258Z,19.17
2019-04-14T23:48:50.543Z,18.90
2019-04-14T23:51:18.810Z,18.96
2019-04-14T23:53:47.080Z,19.15
2019-04-14T23:56:15.336Z,19.27
2019-04-14T23:58:43.599Z,19.61
